createdAt,value
2023-05-11T00:00:53.552Z,148093.72
2023-05-11T00:01:55.692Z,148092.53
2023-05-11T00:02:57.988Z,148084.00
2023-05-11T00:04:00.680Z,148073.13
2023-05-11T00:05:02.933Z,148081.59
2023-05-11T00:06:05.131Z,148094.94
2023-05-11T00:07:07.272Z,148097.38
2023-05-11T00:08:09.483Z,148075.53
2023-05-11T00:09:12.415Z,148070.69
2023-05-11T00:10:14.733Z,148075.53
2023-05-11T00:11:18.530Z,148081.59
2023-05-11T00:12:20.792Z,148090.09
2023-05-11T00:13:22.986Z,148110.69
2023-05-11T00:14:25.242Z,148103.41
2023-05-11T00:15:27.410Z,148121.56
2023-05-11T00:16:29.683Z,148114.31
2023-05-11T00:17:31.948Z,148121.56
2023-05-11T00:18:34.163Z,148115.53
2023-05-11T00:19:36.309Z,148097.38
2023-05-11T00:20:38.558Z,148086.44
2023-05-11T00:21:40.945Z,148090.09
2023-05-11T00:22:44.745Z,148094.94
2023-05-11T00:23:47.165Z,148080.38
2023-05-11T00:24:49.279Z,148073.13
2023-05-11T00:25:51.436Z,148086.44
2023-05-11T00:26:53.655Z,148074.31
2023-05-11T00:27:55.813Z,148077.97
2023-05-11T00:28:58.045Z,148073.13
2023-05-11T00:30:00.345Z,148057.38
2023-05-11T00:31:02.675Z,148056.13
2023-05-11T00:32:05.045Z,148056.13
2023-05-11T00:33:07.442Z,148058.59
2023-05-11T00:34:09.619Z,148052.50
2023-05-11T00:35:12.478Z,148062.22
2023-05-11T00:36:15.511Z,148039.19
2023-05-11T00:37:17.650Z,148045.25
2023-05-11T00:38:20.134Z,148010.09
2023-05-11T00:39:22.281Z,148028.31
2023-05-11T00:40:24.944Z,148027.09
2023-05-11T00:41:27.085Z,148024.66
2023-05-11T00:42:29.244Z,148022.19
2023-05-11T00:43:31.371Z,148021.00
2023-05-11T00:44:33.800Z,148035.56
2023-05-11T00:45:36.329Z,148041.59
2023-05-11T00:46:39.436Z,148042.81
2023-05-11T00:47:41.833Z,148039.19
2023-05-11T00:48:44.313Z,148040.41
2023-05-11T00:49:46.914Z,148039.19
2023-05-11T00:50:49.459Z,148036.78
2023-05-11T00:51:51.805Z,148036.78
2023-05-11T00:52:55.824Z,148068.28
2023-05-11T00:53:58.862Z,148053.72
2023-05-11T00:55:01.314Z,148053.72
2023-05-11T00:56:03.975Z,148061.00
2023-05-11T00:57:06.229Z,148053.72
2023-05-11T00:58:08.408Z,148063.44
2023-05-11T00:59:11.414Z,148061.00
2023-05-11T01:00:14.218Z,148065.84
2023-05-11T01:01:18.634Z,148051.28
2023-05-11T01:02:21.034Z,148050.06
2023-05-11T01:03:23.742Z,148054.91
2023-05-11T01:04:26.348Z,148056.13
2023-05-11T01:05:44.240Z,148092.53
2023-05-11T01:07:11.336Z,148104.63
2023-05-11T01:08:20.255Z,148091.31
2023-05-11T01:09:54.387Z,148099.78
2023-05-11T01:11:11.323Z,148073.13
2023-05-11T01:12:26.761Z,148068.28
2023-05-11T01:13:37.836Z,148052.50
2023-05-11T01:14:49.093Z,148014.94
2023-05-11T01:15:53.812Z,147999.22
2023-05-11T01:17:05.130Z,148036.78
2023-05-11T01:18:19.952Z,148031.94
2023-05-11T01:19:28.406Z,148031.94
2023-05-11T01:20:30.862Z,147995.59
2023-05-11T01:21:34.668Z,148002.84
2023-05-11T01:22:45.602Z,148018.56
2023-05-11T01:24:20.079Z,148012.53
2023-05-11T01:25:32.258Z,147981.03
2023-05-11T01:26:44.126Z,147993.16
2023-05-11T01:27:55.335Z,147990.69
2023-05-11T01:29:12.943Z,147995.59
2023-05-11T01:30:24.058Z,147966.50
2023-05-11T01:31:31.482Z,147955.56
2023-05-11T01:32:36.962Z,147939.84
2023-05-11T01:33:44.428Z,147960.44
2023-05-11T01:34:48.861Z,147954.34
2023-05-11T01:35:54.963Z,147966.50
2023-05-11T01:37:09.993Z,147947.09
2023-05-11T01:38:14.636Z,147941.06
2023-05-11T01:39:24.862Z,147951.94
2023-05-11T01:40:31.462Z,147959.25
2023-05-11T01:41:36.038Z,147954.34
2023-05-11T01:43:07.416Z,147961.66
2023-05-11T01:44:18.323Z,147922.81
2023-05-11T01:45:20.721Z,147968.94
2023-05-11T01:46:26.390Z,147966.50
2023-05-11T01:47:30.361Z,147951.94
2023-05-11T01:48:38.089Z,147972.56
2023-05-11T01:49:42.391Z,147943.47
2023-05-11T01:50:46.078Z,147935.00
2023-05-11T01:51:51.430Z,147935.00
2023-05-11T01:52:55.033Z,147925.22
2023-05-11T01:54:00.133Z,147925.22
2023-05-11T01:55:04.696Z,147915.56
2023-05-11T01:56:07.669Z,147887.69
2023-05-11T01:57:12.939Z,147913.13
2023-05-11T01:58:18.136Z,147886.47
2023-05-11T01:59:20.636Z,147881.66
2023-05-11T02:00:23.740Z,147893.78
2023-05-11T02:01:30.623Z,147908.31
2023-05-11T02:02:34.239Z,147924.03
2023-05-11T02:03:38.301Z,147908.31
2023-05-11T02:04:42.487Z,147898.63
2023-05-11T02:05:47.399Z,147902.25
2023-05-11T02:06:52.474Z,147901.03
2023-05-11T02:07:58.216Z,147903.47
2023-05-11T02:09:01.798Z,147890.13
2023-05-11T02:10:04.555Z,147893.78
2023-05-11T02:11:10.441Z,147920.41
2023-05-11T02:12:16.105Z,147909.50
2023-05-11T02:13:19.879Z,147905.88
2023-05-11T02:14:24.629Z,147910.72
2023-05-11T02:15:28.393Z,147938.63
2023-05-11T02:16:32.539Z,147922.81
2023-05-11T02:17:35.485Z,147922.81
2023-05-11T02:18:41.004Z,147932.59
2023-05-11T02:19:45.018Z,147951.94
2023-05-11T02:20:48.147Z,147947.09
2023-05-11T02:21:52.790Z,147954.34
2023-05-11T02:22:56.655Z,147951.94
2023-05-11T02:24:03.321Z,147968.94
2023-05-11T02:25:07.867Z,147949.53
2023-05-11T02:26:12.330Z,147959.25
2023-05-11T02:27:14.473Z,147942.25
2023-05-11T02:28:16.692Z,147947.09
2023-05-11T02:29:19.016Z,147938.63
2023-05-11T02:30:21.343Z,147942.25
2023-05-11T02:31:29.821Z,147979.81
2023-05-11T02:32:36.286Z,147988.28
2023-05-11T02:33:44.830Z,147971.34
2023-05-11T02:34:51.854Z,147966.50
2023-05-11T02:35:56.463Z,147951.94
2023-05-11T02:37:09.781Z,147983.44
2023-05-11T02:38:14.307Z,147947.09
2023-05-11T02:39:21.903Z,147968.94
2023-05-11T02:40:32.053Z,147976.19
2023-05-11T02:41:39.641Z,147996.78
2023-05-11T02:42:44.217Z,147972.56
2023-05-11T02:43:51.212Z,148000.41
2023-05-11T02:44:58.624Z,147987.06
2023-05-11T02:46:05.011Z,147981.03
2023-05-11T02:47:12.803Z,147983.44
2023-05-11T02:48:25.018Z,147981.03
2023-05-11T02:49:30.981Z,147954.34
2023-05-11T02:50:37.382Z,147947.09
2023-05-11T02:51:44.796Z,147948.31
2023-05-11T02:52:49.479Z,147945.88
2023-05-11T02:53:54.542Z,147920.41
2023-05-11T02:54:57.747Z,147907.09
2023-05-11T02:56:00.906Z,147913.13
2023-05-11T02:57:04.026Z,147921.59
2023-05-11T02:58:06.407Z,147901.03
2023-05-11T02:59:09.202Z,147901.03
2023-05-11T03:00:12.506Z,147910.72
2023-05-11T03:01:15.579Z,147911.94
2023-05-11T03:02:18.096Z,147903.47
2023-05-11T03:03:20.458Z,147903.47
2023-05-11T03:04:22.975Z,147920.41
2023-05-11T03:05:25.331Z,147910.72
2023-05-11T03:06:27.610Z,147930.16
2023-05-11T03:07:29.878Z,147910.72
2023-05-11T03:08:32.150Z,147927.75
2023-05-11T03:09:35.066Z,147944.69
2023-05-11T03:10:37.874Z,147930.16
2023-05-11T03:11:40.830Z,147937.44
2023-05-11T03:12:44.032Z,147932.59
2023-05-11T03:13:46.326Z,147919.19
2023-05-11T03:14:52.305Z,147951.94
2023-05-11T03:15:55.355Z,147921.59
2023-05-11T03:16:58.666Z,147937.44
2023-05-11T03:18:01.838Z,147931.38
2023-05-11T03:19:07.179Z,147955.56
2023-05-11T03:20:11.107Z,147939.84
2023-05-11T03:21:18.357Z,147981.03
2023-05-11T03:22:22.365Z,147947.09
2023-05-11T03:23:24.810Z,147925.22
2023-05-11T03:24:27.917Z,147915.56
2023-05-11T03:25:30.645Z,147905.88
2023-05-11T03:26:34.231Z,147915.56
2023-05-11T03:27:37.571Z,147903.47
2023-05-11T03:28:43.923Z,147920.41
2023-05-11T03:29:48.887Z,147931.38
2023-05-11T03:30:53.349Z,147922.81
2023-05-11T03:31:55.902Z,147907.09
2023-05-11T03:32:59.133Z,147915.56
2023-05-11T03:34:01.534Z,147901.03
2023-05-11T03:35:07.143Z,147922.81
2023-05-11T03:36:10.964Z,147936.22
2023-05-11T03:37:14.816Z,147908.31
2023-05-11T03:38:19.542Z,147904.66
2023-05-11T03:39:23.284Z,147926.53
2023-05-11T03:40:27.895Z,147905.88
2023-05-11T03:41:32.374Z,147931.38
2023-05-11T03:42:37.945Z,147944.69
2023-05-11T03:43:40.961Z,147936.22
2023-05-11T03:44:47.353Z,147939.84
2023-05-11T03:45:53.187Z,147935.00
2023-05-11T03:46:58.392Z,147903.47
2023-05-11T03:48:01.875Z,147884.06
2023-05-11T03:49:06.225Z,147880.44
2023-05-11T03:50:09.558Z,147881.66
2023-05-11T03:51:12.129Z,147893.78
2023-05-11T03:52:15.009Z,147910.72
2023-05-11T03:53:17.576Z,147888.91
2023-05-11T03:54:19.805Z,147881.66
2023-05-11T03:55:22.989Z,147869.56
2023-05-11T03:56:25.139Z,147862.28
2023-05-11T03:57:27.532Z,147855.00
2023-05-11T03:58:31.344Z,147874.38
2023-05-11T03:59:33.597Z,147862.28
2023-05-11T04:00:42.240Z,147892.53
2023-05-11T04:01:44.820Z,147853.78
2023-05-11T04:02:47.252Z,147852.56
2023-05-11T04:03:51.821Z,147861.09
2023-05-11T04:04:54.354Z,147839.28
2023-05-11T04:05:56.660Z,147833.22
2023-05-11T04:06:59.626Z,147845.31
2023-05-11T04:08:02.891Z,147838.06
2023-05-11T04:09:05.115Z,147806.56
2023-05-11T04:10:07.946Z,147811.41
2023-05-11T04:11:10.661Z,147801.75
2023-05-11T04:12:12.887Z,147809.00
2023-05-11T04:13:15.025Z,147815.03
2023-05-11T04:14:17.691Z,147799.31
2023-05-11T04:15:19.879Z,147798.09
2023-05-11T04:16:23.397Z,147779.94
2023-05-11T04:17:25.659Z,147771.47
2023-05-11T04:18:27.900Z,147779.94
2023-05-11T04:19:30.133Z,147792.00
2023-05-11T04:20:32.443Z,147787.19
2023-05-11T04:21:35.735Z,147788.38
2023-05-11T04:22:38.632Z,147818.66
2023-05-11T04:23:40.829Z,147830.81
2023-05-11T04:24:43.053Z,147830.81
2023-05-11T04:25:45.263Z,147830.81
2023-05-11T04:26:47.419Z,147832.00
2023-05-11T04:27:49.602Z,147847.75
2023-05-11T04:28:51.726Z,147840.47
2023-05-11T04:29:54.006Z,147832.00
2023-05-11T04:30:57.501Z,147847.75
2023-05-11T04:31:59.772Z,147835.63
2023-05-11T04:33:03.670Z,147833.22
2023-05-11T04:34:07.495Z,147844.09
2023-05-11T04:35:11.355Z,147816.25
2023-05-11T04:36:14.766Z,147851.38
2023-05-11T04:37:16.919Z,147848.94
2023-05-11T04:38:20.096Z,147848.94
2023-05-11T04:39:22.347Z,147852.56
2023-05-11T04:40:24.688Z,147855.00
2023-05-11T04:41:28.424Z,147857.41
2023-05-11T04:42:33.373Z,147863.50
2023-05-11T04:43:37.830Z,147867.13
2023-05-11T04:44:40.809Z,147867.13
2023-05-11T04:45:48.410Z,147896.22
2023-05-11T04:46:55.941Z,147905.88
2023-05-11T04:47:58.218Z,147869.56
2023-05-11T04:49:01.249Z,147852.56
2023-05-11T04:50:06.043Z,147839.28
2023-05-11T04:51:10.318Z,147838.06
2023-05-11T04:52:18.048Z,147830.81
2023-05-11T04:53:23.693Z,147815.03
2023-05-11T04:54:25.907Z,147787.19
2023-05-11T04:55:28.080Z,147804.16
2023-05-11T04:56:31.264Z,147792.00
2023-05-11T04:57:34.799Z,147795.69
2023-05-11T04:58:37.912Z,147805.38
2023-05-11T04:59:40.128Z,147822.28
2023-05-11T05:00:42.403Z,147832.00
2023-05-11T05:01:44.691Z,147830.81
2023-05-11T05:02:46.929Z,147845.31
2023-05-11T05:03:49.921Z,147846.53
2023-05-11T05:04:53.106Z,147855.00
2023-05-11T05:05:56.071Z,147863.50
2023-05-11T05:06:58.675Z,147879.22
2023-05-11T05:08:01.188Z,147887.69
2023-05-11T05:09:03.427Z,147898.63
2023-05-11T05:10:08.844Z,147871.97
2023-05-11T05:11:11.183Z,147857.41
2023-05-11T05:12:13.317Z,147862.28
2023-05-11T05:13:18.282Z,147881.66
2023-05-11T05:14:20.504Z,147891.31
2023-05-11T05:15:22.720Z,147904.66
2023-05-11T05:16:24.923Z,147917.97
2023-05-11T05:17:27.185Z,147951.94
2023-05-11T05:18:29.411Z,147964.09
2023-05-11T05:19:31.781Z,147961.66
2023-05-11T05:20:35.134Z,147970.13
2023-05-11T05:21:37.730Z,147998.00
2023-05-11T05:22:39.893Z,147998.00
2023-05-11T05:23:42.016Z,147999.22
2023-05-11T05:24:44.135Z,147995.59
2023-05-11T05:25:46.573Z,148002.84
2023-05-11T05:26:48.770Z,148005.25
2023-05-11T05:27:51.602Z,148014.94
2023-05-11T05:28:54.981Z,148005.25
2023-05-11T05:29:57.202Z,147995.59
2023-05-11T05:31:01.078Z,147956.78
2023-05-11T05:32:03.720Z,147966.50
2023-05-11T05:33:06.355Z,147966.50
2023-05-11T05:34:10.809Z,147976.19
2023-05-11T05:35:13.332Z,147990.69
2023-05-11T05:36:17.676Z,147988.28
2023-05-11T05:37:19.835Z,147961.66
2023-05-11T05:38:22.437Z,147981.03
2023-05-11T05:39:24.704Z,147961.66
2023-05-11T05:40:27.208Z,147938.63
2023-05-11T05:41:31.362Z,147910.72
2023-05-11T05:42:33.640Z,147925.22
2023-05-11T05:43:36.157Z,147935.00
2023-05-11T05:44:38.711Z,147913.13
2023-05-11T05:45:41.114Z,147932.59
2023-05-11T05:46:43.948Z,147942.25
2023-05-11T05:47:47.198Z,147935.00
2023-05-11T05:48:49.532Z,147932.59
2023-05-11T05:49:51.691Z,147920.41
2023-05-11T05:50:53.990Z,147910.72
2023-05-11T05:51:56.334Z,147903.47
2023-05-11T05:52:58.811Z,147879.22
2023-05-11T05:54:03.356Z,147869.56
2023-05-11T05:55:06.497Z,147899.84
2023-05-11T05:56:08.735Z,147901.03
2023-05-11T05:57:11.894Z,147932.59
2023-05-11T05:58:14.881Z,147939.84
2023-05-11T05:59:18.969Z,147931.38
2023-05-11T06:00:21.488Z,147949.53
2023-05-11T06:01:31.691Z,147935.00
2023-05-11T06:02:34.000Z,147954.34
2023-05-11T06:03:36.440Z,147968.94
2023-05-11T06:04:39.365Z,147961.66
2023-05-11T06:05:41.530Z,147971.34
2023-05-11T06:06:43.948Z,147990.69
2023-05-11T06:07:54.308Z,147989.50
2023-05-11T06:09:04.340Z,147998.00
2023-05-11T06:10:06.745Z,148000.41
2023-05-11T06:11:08.957Z,148006.47
2023-05-11T06:12:11.520Z,148002.84
2023-05-11T06:13:18.184Z,148019.78
2023-05-11T06:14:22.373Z,148016.16
2023-05-11T06:15:25.270Z,148017.38
2023-05-11T06:16:33.547Z,148030.72
2023-05-11T06:17:35.824Z,148029.50
2023-05-11T06:18:38.147Z,148058.59
2023-05-11T06:19:42.628Z,148068.28
2023-05-11T06:20:45.368Z,148073.13
2023-05-11T06:21:48.659Z,148081.59
2023-05-11T06:22:51.164Z,148053.72
2023-05-11T06:23:53.422Z,148058.59
2023-05-11T06:24:55.640Z,148090.09
2023-05-11T06:25:57.826Z,148097.38
2023-05-11T06:27:01.692Z,148126.47
2023-05-11T06:28:05.039Z,148156.75
2023-05-11T06:29:08.129Z,148153.09
2023-05-11T06:30:11.415Z,148153.09
2023-05-11T06:31:14.015Z,148162.81
2023-05-11T06:32:17.997Z,148153.09
2023-05-11T06:33:20.546Z,148162.81
2023-05-11T06:34:22.767Z,148150.66
2023-05-11T06:35:25.496Z,148157.97
2023-05-11T06:36:28.595Z,148157.97
2023-05-11T06:37:31.237Z,148148.25
2023-05-11T06:38:33.634Z,148153.09
2023-05-11T06:39:37.713Z,148182.19
2023-05-11T06:40:43.017Z,148178.56
2023-05-11T06:41:45.353Z,148185.81
2023-05-11T06:42:47.528Z,148187.03
2023-05-11T06:43:49.666Z,148206.44
2023-05-11T06:45:00.822Z,148231.91
2023-05-11T06:46:04.531Z,148204.00
2023-05-11T06:47:08.638Z,148189.50
2023-05-11T06:48:10.811Z,148172.50
2023-05-11T06:49:13.162Z,148184.59
2023-05-11T06:50:15.440Z,148187.03
2023-05-11T06:51:17.791Z,148216.13
2023-05-11T06:52:19.958Z,148221.00
2023-05-11T06:53:22.352Z,148261.06
2023-05-11T06:54:24.559Z,148253.75
2023-05-11T06:55:27.842Z,148262.28
2023-05-11T06:56:31.873Z,148267.09
2023-05-11T06:57:34.025Z,148281.66
2023-05-11T06:58:36.259Z,148314.38
2023-05-11T06:59:38.437Z,148302.28
2023-05-11T07:00:40.850Z,148313.16
2023-05-11T07:01:43.496Z,148328.97
2023-05-11T07:02:45.722Z,148311.97
2023-05-11T07:03:49.750Z,148318.06
2023-05-11T07:04:52.779Z,148297.44
2023-05-11T07:05:55.149Z,148281.66
2023-05-11T07:06:57.319Z,148235.53
2023-05-11T07:07:59.458Z,148251.28
2023-05-11T07:09:03.399Z,148222.22
2023-05-11T07:10:06.729Z,148233.13
2023-05-11T07:11:08.953Z,148230.69
2023-05-11T07:12:11.154Z,148247.66
2023-05-11T07:13:14.229Z,148208.84
2023-05-11T07:14:16.382Z,148237.97
2023-05-11T07:15:18.575Z,148261.06
2023-05-11T07:16:20.860Z,148274.38
2023-05-11T07:17:23.414Z,148293.78
2023-05-11T07:18:25.790Z,148267.09
2023-05-11T07:19:27.971Z,148280.44
2023-05-11T07:20:30.300Z,148316.81
2023-05-11T07:21:35.372Z,148349.53
2023-05-11T07:22:37.549Z,148269.53
2023-05-11T07:23:39.750Z,148318.06
2023-05-11T07:24:42.256Z,148292.59
2023-05-11T07:25:44.379Z,148319.28
2023-05-11T07:26:46.552Z,148335.00
2023-05-11T07:27:48.681Z,148352.00
2023-05-11T07:28:50.916Z,148322.91
2023-05-11T07:29:53.102Z,148367.75
2023-05-11T07:30:55.378Z,148345.91
2023-05-11T07:31:57.741Z,148348.34
2023-05-11T07:33:00.001Z,148354.44
2023-05-11T07:34:02.612Z,148354.44
2023-05-11T07:35:05.557Z,148384.75
2023-05-11T07:36:07.984Z,148383.56
2023-05-11T07:37:10.247Z,148388.41
2023-05-11T07:38:13.841Z,148401.72
2023-05-11T07:39:17.066Z,148436.91
2023-05-11T07:40:19.624Z,148418.72
2023-05-11T07:41:26.088Z,148417.50
2023-05-11T07:42:28.243Z,148432.03
2023-05-11T07:43:30.434Z,148451.47
2023-05-11T07:44:32.618Z,148449.06
2023-05-11T07:47:13.838Z,148491.50
2023-05-11T07:48:16.464Z,148499.97
2023-05-11T07:49:22.985Z,148504.81
2023-05-11T07:50:33.473Z,148529.09
2023-05-11T07:51:35.750Z,148521.84
2023-05-11T07:52:38.321Z,148515.78
2023-05-11T07:53:40.497Z,148538.78
2023-05-11T07:54:42.800Z,148502.41
2023-05-11T07:55:44.983Z,148525.47
2023-05-11T07:56:47.144Z,148527.88
2023-05-11T07:57:49.382Z,148554.59
2023-05-11T07:58:51.541Z,148560.69
2023-05-11T07:59:53.726Z,148543.66
2023-05-11T08:00:56.714Z,148559.50
2023-05-11T08:01:59.440Z,148563.13
2023-05-11T08:03:02.045Z,148554.59
2023-05-11T08:04:04.403Z,148554.59
2023-05-11T08:05:07.298Z,148550.97
2023-05-11T08:06:09.663Z,148577.66
2023-05-11T08:07:11.886Z,148582.56
2023-05-11T08:08:14.055Z,148657.78
2023-05-11T08:09:16.487Z,148674.75
2023-05-11T08:10:18.696Z,148614.13
2023-05-11T08:11:20.911Z,148648.09
2023-05-11T08:12:23.096Z,148623.81
2023-05-11T08:13:26.015Z,148682.06
2023-05-11T08:14:28.526Z,148709.97
2023-05-11T08:15:30.750Z,148725.75
2023-05-11T08:16:33.343Z,148700.25
2023-05-11T08:17:36.462Z,148671.13
2023-05-11T08:18:38.794Z,148682.06
2023-05-11T08:19:40.981Z,148669.91
2023-05-11T08:20:43.173Z,148706.31
2023-05-11T08:21:46.465Z,148730.63
2023-05-11T08:22:48.848Z,148746.41
2023-05-11T08:23:51.196Z,148757.34
2023-05-11T08:24:53.414Z,148793.75
2023-05-11T08:25:56.297Z,148791.31
2023-05-11T08:26:58.982Z,148803.44
2023-05-11T08:28:02.430Z,148835.06
2023-05-11T08:29:04.908Z,148847.25
2023-05-11T08:30:11.343Z,148838.72
2023-05-11T08:31:14.397Z,148839.94
2023-05-11T08:32:16.702Z,148798.59
2023-05-11T08:33:36.047Z,148837.50
2023-05-11T08:34:40.284Z,148895.81
2023-05-11T08:35:43.051Z,148903.06
2023-05-11T08:36:45.969Z,148903.06
2023-05-11T08:37:48.380Z,148898.22
2023-05-11T08:38:51.096Z,148894.59
2023-05-11T08:39:54.654Z,148923.75
2023-05-11T08:40:56.848Z,148927.38
2023-05-11T08:42:02.682Z,148905.50
2023-05-11T08:43:07.253Z,148895.81
2023-05-11T08:44:10.699Z,148903.06
2023-05-11T08:45:13.394Z,148864.22
2023-05-11T08:46:22.381Z,148897.00
2023-05-11T08:47:25.121Z,148900.66
2023-05-11T08:48:28.024Z,148910.41
2023-05-11T08:49:30.424Z,148937.09
2023-05-11T08:50:33.373Z,148952.91
2023-05-11T08:51:35.725Z,148985.69
2023-05-11T08:52:38.245Z,149002.69
2023-05-11T08:53:40.584Z,148979.63
2023-05-11T08:54:43.098Z,148969.88
2023-05-11T08:55:47.817Z,149033.06
2023-05-11T08:56:51.713Z,149010.00
2023-05-11T08:57:56.425Z,149050.09
2023-05-11T08:58:58.968Z,149051.31
2023-05-11T09:00:02.952Z,149065.88
2023-05-11T09:01:06.744Z,149095.09
2023-05-11T09:02:14.411Z,149130.31
2023-05-11T09:03:19.898Z,149140.06
2023-05-11T09:04:23.963Z,149142.50
2023-05-11T09:05:28.022Z,149152.22
2023-05-11T09:06:31.254Z,149187.47
2023-05-11T09:07:37.332Z,149219.06
2023-05-11T09:08:40.064Z,149154.63
2023-05-11T09:09:42.368Z,149153.44
2023-05-11T09:10:44.914Z,149187.47
2023-05-11T09:11:47.580Z,149216.63
2023-05-11T09:12:49.741Z,149236.09
2023-05-11T09:13:52.431Z,149227.56
2023-05-11T09:14:54.832Z,149283.50
2023-05-11T09:15:57.487Z,149260.38
2023-05-11T09:16:59.691Z,149287.13
2023-05-11T09:18:02.810Z,149328.47
2023-05-11T09:19:05.688Z,149275.00
2023-05-11T09:20:09.464Z,149324.81
2023-05-11T09:21:12.859Z,149372.31
2023-05-11T09:22:15.094Z,149410.00
2023-05-11T09:23:17.805Z,149519.47
2023-05-11T09:24:20.979Z,149482.97
2023-05-11T09:25:24.517Z,149523.09
2023-05-11T09:26:29.364Z,149530.44
2023-05-11T09:27:32.374Z,149618.06
2023-05-11T09:28:36.094Z,149660.69
2023-05-11T09:29:38.567Z,149709.34
2023-05-11T09:30:40.767Z,149854.22
2023-05-11T09:31:47.342Z,149934.63
2023-05-11T09:32:54.487Z,149989.47
2023-05-11T09:34:29.257Z,150027.22
2023-05-11T09:35:34.006Z,149941.91
2023-05-11T09:36:36.383Z,149972.34
2023-05-11T09:37:39.180Z,149890.78
2023-05-11T09:38:41.505Z,149951.63
2023-05-11T09:39:59.208Z,149971.13
2023-05-11T09:41:06.869Z,149910.25
2023-05-11T09:42:17.404Z,150021.09
2023-05-11T09:43:24.954Z,150005.28
2023-05-11T09:44:31.679Z,149941.91
2023-05-11T09:45:41.910Z,149996.78
2023-05-11T09:46:45.714Z,150093.00
2023-05-11T09:47:49.144Z,150145.38
2023-05-11T09:49:00.057Z,150269.72
2023-05-11T09:50:15.433Z,150386.78
2023-05-11T09:51:33.023Z,150278.22
2023-05-11T09:52:43.576Z,150392.88
2023-05-11T09:53:46.259Z,150358.72
2023-05-11T09:54:51.762Z,150390.44
2023-05-11T09:55:55.451Z,150374.53
2023-05-11T09:57:00.200Z,150339.19
2023-05-11T09:58:04.411Z,150362.34
2023-05-11T09:59:06.576Z,150290.44
2023-05-11T10:00:14.988Z,150356.28
2023-05-11T10:01:19.124Z,150308.72
2023-05-11T10:02:25.234Z,150224.63
2023-05-11T10:03:27.682Z,150236.81
2023-05-11T10:04:30.187Z,150230.72
2023-05-11T10:05:36.712Z,150247.75
2023-05-11T10:06:49.522Z,150270.94
2023-05-11T10:08:00.189Z,150238.03
2023-05-11T10:09:11.547Z,150190.53
2023-05-11T10:10:13.980Z,150153.94
2023-05-11T10:11:16.312Z,150110.03
2023-05-11T10:12:22.140Z,150090.56
2023-05-11T10:13:24.865Z,150064.97
2023-05-11T10:14:28.316Z,150032.09
2023-05-11T10:15:33.309Z,150060.13
2023-05-11T10:16:35.879Z,150044.25
2023-05-11T10:17:38.290Z,150099.09
2023-05-11T10:18:41.210Z,150166.09
2023-05-11T10:19:43.548Z,150224.63
2023-05-11T10:20:46.331Z,150329.44
2023-05-11T10:21:49.464Z,150273.38
2023-05-11T10:22:53.608Z,150256.31
2023-05-11T10:23:57.482Z,150312.34
2023-05-11T10:25:00.223Z,150356.28
2023-05-11T10:26:04.971Z,150373.31
2023-05-11T10:27:07.488Z,150388.00
2023-05-11T10:28:10.671Z,150311.13
2023-05-11T10:29:13.864Z,150331.88
2023-05-11T10:30:16.280Z,150300.19
2023-05-11T10:31:24.128Z,150206.34
2023-05-11T10:32:27.698Z,150261.19
2023-05-11T10:33:30.412Z,150153.94
2023-05-11T10:34:33.868Z,150227.06
2023-05-11T10:35:38.476Z,150221.00
2023-05-11T10:36:40.689Z,150211.22
2023-05-11T10:37:43.372Z,150269.72
2023-05-11T10:38:45.632Z,150190.53
2023-05-11T10:39:50.472Z,150149.00
2023-05-11T10:41:02.310Z,150188.09
2023-05-11T10:42:25.761Z,150162.44
2023-05-11T10:43:47.529Z,150190.53
2023-05-11T10:44:58.541Z,150147.81
2023-05-11T10:46:10.582Z,150022.38
2023-05-11T10:47:42.338Z,150039.38
2023-05-11T10:49:11.890Z,149972.34
2023-05-11T10:50:32.897Z,149976.00
2023-05-11T10:52:06.457Z,150004.06
2023-05-11T10:53:32.222Z,149960.19
2023-05-11T10:55:16.824Z,149993.13
2023-05-11T10:56:35.247Z,149963.84
2023-05-11T10:58:00.042Z,149978.44
2023-05-11T10:59:41.737Z,149991.91
2023-05-11T11:01:02.109Z,150001.63
2023-05-11T11:02:04.715Z,149846.94
2023-05-11T11:03:14.441Z,149815.28
2023-05-11T11:04:17.352Z,149761.69
2023-05-11T11:05:36.369Z,149795.81
2023-05-11T11:06:43.841Z,149839.63
2023-05-11T11:08:00.290Z,149853.00
2023-05-11T11:09:13.673Z,149893.22
2023-05-11T11:10:30.710Z,149900.53
2023-05-11T11:11:36.354Z,149884.66
2023-05-11T11:12:38.713Z,149910.25
2023-05-11T11:13:57.400Z,149956.56
2023-05-11T11:15:07.013Z,149988.22
2023-05-11T11:16:09.527Z,149990.69
2023-05-11T11:17:24.310Z,150034.53
2023-05-11T11:18:33.547Z,150085.66
2023-05-11T11:19:36.559Z,150058.91
2023-05-11T11:20:49.852Z,150145.38
2023-05-11T11:21:52.052Z,150170.97
2023-05-11T11:22:54.347Z,150144.16
2023-05-11T11:23:56.680Z,150197.81
2023-05-11T11:24:58.906Z,150180.69
2023-05-11T11:26:02.946Z,150233.16
2023-05-11T11:27:06.402Z,150311.13
2023-05-11T11:28:08.922Z,150267.28
2023-05-11T11:29:11.635Z,150268.50
2023-05-11T11:30:17.677Z,150277.03
2023-05-11T11:31:28.099Z,150274.59
2023-05-11T11:32:30.458Z,150246.53
2023-05-11T11:33:34.078Z,150207.56
2023-05-11T11:34:36.568Z,150155.16
2023-05-11T11:35:42.166Z,150185.59
2023-05-11T11:37:05.809Z,150162.44
2023-05-11T11:38:09.068Z,150160.00
2023-05-11T11:39:11.488Z,150131.97
2023-05-11T11:40:15.161Z,150041.81
2023-05-11T11:41:33.134Z,150106.38
2023-05-11T11:42:37.968Z,150056.47
2023-05-11T11:43:45.641Z,150046.69
2023-05-11T11:44:48.534Z,149932.19
2023-05-11T11:45:56.162Z,149961.41
2023-05-11T11:47:19.793Z,150044.25
2023-05-11T11:48:36.319Z,150099.09
2023-05-11T11:49:40.161Z,150051.56
2023-05-11T11:50:44.448Z,150138.06
2023-05-11T11:51:46.648Z,150107.59
2023-05-11T11:52:48.790Z,150138.06
2023-05-11T11:53:51.178Z,150200.25
2023-05-11T11:54:54.356Z,150202.69
2023-05-11T11:55:56.706Z,150267.28
2023-05-11T11:57:00.210Z,150341.63
2023-05-11T11:58:02.393Z,150356.28
2023-05-11T11:59:10.025Z,150419.72
2023-05-11T12:00:14.170Z,150434.31
2023-05-11T12:01:18.809Z,150489.19
2023-05-11T12:02:22.611Z,150409.94
2023-05-11T12:03:25.755Z,150445.28
2023-05-11T12:04:31.464Z,150491.63
2023-05-11T12:05:37.329Z,150429.44
2023-05-11T12:06:41.194Z,150373.31
2023-05-11T12:07:46.042Z,150331.88
2023-05-11T12:08:48.532Z,150305.06
2023-05-11T12:09:52.875Z,150105.16
2023-05-11T12:10:55.403Z,150073.50
2023-05-11T12:11:58.653Z,150084.44
2023-05-11T12:13:01.357Z,149960.19
2023-05-11T12:14:03.560Z,149927.31
2023-05-11T12:15:07.628Z,149943.13
2023-05-11T12:16:15.004Z,149933.41
2023-05-11T12:17:28.201Z,149892.00
2023-05-11T12:18:30.625Z,149885.88
2023-05-11T12:19:32.854Z,149873.72
2023-05-11T12:20:35.309Z,149884.66
2023-05-11T12:21:37.458Z,149876.16